createdAt,value
2022-11-27T00:01:03.524Z,99774.44
2022-11-27T00:06:31.500Z,99759.47
2022-11-27T00:11:58.588Z,99762.31
2022-11-27T00:17:30.943Z,99762.53
2022-11-27T00:22:55.513Z,99744.09
2022-11-27T00:28:22.528Z,99734.44
2022-11-27T00:33:47.511Z,99717.66
2022-11-27T00:39:12.556Z,99702.56
2022-11-27T00:44:41.182Z,99696.41
2022-11-27T00:50:05.496Z,99694.69
2022-11-27T00:55:30.595Z,99687.63
2022-11-27T01:00:57.528Z,99691.44
2022-11-27T01:06:23.549Z,99677.47
2022-11-27T01:11:50.539Z,99687.28
2022-11-27T01:17:24.552Z,99689.16
2022-11-27T01:22:49.562Z,99688.22
2022-11-27T01:28:13.509Z,99692.03
2022-11-27T01:33:41.549Z,99700.88
2022-11-27T01:39:06.534Z,99688.56
2022-11-27T01:45:10.528Z,99679.06
2022-11-27T01:50:42.615Z,99666.75
2022-11-27T01:56:13.023Z,99658.97
2022-11-27T02:01:38.821Z,99656.34
2022-11-27T02:07:08.548Z,99652.19
2022-11-27T02:12:38.578Z,99647.19
2022-11-27T02:18:16.567Z,99651.63
2022-11-27T02:24:16.550Z,99637.50
2022-11-27T02:29:45.574Z,99638.44
2022-11-27T02:35:19.593Z,99641.22
2022-11-27T02:40:52.759Z,99650.09
2022-11-27T02:46:22.973Z,99644.00
2022-11-27T02:51:53.568Z,99632.53
2022-11-27T02:57:21.581Z,99626.53
2022-11-27T03:02:55.623Z,99637.28
2022-11-27T03:08:29.564Z,99638.41
2022-11-27T03:13:56.568Z,99622.03
2022-11-27T03:19:29.583Z,99626.03
2022-11-27T03:24:56.560Z,99619.44
2022-11-27T03:30:23.594Z,99619.78
2022-11-27T03:35:50.606Z,99615.69
2022-11-27T03:41:25.614Z,99610.50
2022-11-27T03:47:01.599Z,99605.34
2022-11-27T03:52:36.621Z,99596.88
2022-11-27T03:58:09.632Z,99591.84
2022-11-27T04:03:37.628Z,99588.41
2022-11-27T04:09:04.652Z,99578.72
2022-11-27T04:14:29.636Z,99577.09
2022-11-27T04:19:53.624Z,99573.50
2022-11-27T04:25:21.611Z,99570.84
2022-11-27T04:30:45.605Z,99584.09
2022-11-27T04:36:10.621Z,99591.97
2022-11-27T04:41:37.616Z,99590.00
2022-11-27T04:47:02.814Z,99580.97
2022-11-27T04:52:26.615Z,99578.00
2022-11-27T04:57:54.607Z,99582.03
2022-11-27T05:03:18.634Z,99593.34
2022-11-27T05:08:43.673Z,99594.25
2022-11-27T05:14:27.673Z,99598.50
2022-11-27T05:19:52.650Z,99598.34
2022-11-27T05:25:16.639Z,99603.00
2022-11-27T05:30:44.631Z,99603.97
2022-11-27T05:36:08.634Z,99593.50
2022-11-27T05:41:33.714Z,99585.81
2022-11-27T05:47:00.700Z,99577.22
2022-11-27T05:52:25.633Z,99571.25
2022-11-27T05:57:49.665Z,99566.94
2022-11-27T06:03:17.764Z,99575.81
2022-11-27T06:08:41.624Z,99569.78
2022-11-27T06:14:06.655Z,99573.75
2022-11-27T06:19:33.652Z,99566.97
2022-11-27T06:24:58.709Z,99576.00
2022-11-27T06:30:24.685Z,99584.72
2022-11-27T06:35:52.648Z,99564.59
2022-11-27T06:41:21.653Z,99557.50
2022-11-27T06:46:46.641Z,99561.16
2022-11-27T06:52:13.672Z,99551.47
2022-11-27T06:57:38.658Z,99544.47
2022-11-27T07:03:02.846Z,99527.78
2022-11-27T07:08:31.676Z,99531.34
2022-11-27T07:13:56.766Z,99532.16
2022-11-27T07:19:22.650Z,99534.75
2022-11-27T07:24:49.659Z,99527.66
2022-11-27T07:30:16.660Z,99530.38
2022-11-27T07:35:42.685Z,99531.31
2022-11-27T07:41:11.717Z,99527.72
2022-11-27T07:46:39.680Z,99525.13
2022-11-27T07:52:04.661Z,99526.25
2022-11-27T07:57:31.701Z,99528.16
2022-11-27T08:02:56.669Z,99520.75
2022-11-27T08:08:20.711Z,99525.81
2022-11-27T08:13:48.841Z,99513.88
2022-11-27T08:19:13.672Z,99518.78
2022-11-27T08:24:39.072Z,99511.22
2022-11-27T08:30:06.679Z,99500.22
2022-11-27T08:35:31.697Z,99486.59
2022-11-27T08:40:55.718Z,99487.09
2022-11-27T08:46:23.701Z,99482.25
2022-11-27T08:51:49.695Z,99480.66
2022-11-27T08:57:14.753Z,99473.78
2022-11-27T09:02:41.701Z,99467.75
2022-11-27T09:08:08.746Z,99476.63
2022-11-27T09:13:34.203Z,99469.59
2022-11-27T09:19:03.701Z,99478.53
2022-11-27T09:24:27.744Z,99463.78
2022-11-27T09:29:52.711Z,99462.88
2022-11-27T09:35:21.930Z,99456.69
2022-11-27T09:40:46.833Z,99444.28
2022-11-27T09:46:18.788Z,99451.66
2022-11-27T09:51:52.762Z,99451.69
2022-11-27T09:57:17.851Z,99426.91
2022-11-27T10:02:46.247Z,99402.00
2022-11-27T10:08:36.757Z,99378.75
2022-11-27T10:14:27.712Z,99350.25
2022-11-27T10:20:00.740Z,99334.06
2022-11-27T10:25:30.735Z,99313.88
2022-11-27T10:31:02.736Z,99307.44
2022-11-27T10:36:39.747Z,99301.50
2022-11-27T10:42:15.745Z,99296.06
2022-11-27T10:47:40.719Z,99278.91
2022-11-27T10:53:09.941Z,99280.09
2022-11-27T10:58:43.764Z,99263.34
2022-11-27T11:10:06.901Z,99246.25
2022-11-27T11:15:41.772Z,99232.16
2022-11-27T11:21:09.745Z,99220.78
2022-11-27T11:26:41.745Z,99223.56
2022-11-27T11:32:18.779Z,99219.25
2022-11-27T11:37:45.754Z,99213.25
2022-11-27T11:43:16.769Z,99203.13
2022-11-27T11:48:43.778Z,99191.22
2022-11-27T11:54:22.813Z,99171.56
2022-11-27T11:59:57.756Z,99159.59
2022-11-27T12:05:36.793Z,99153.44
2022-11-27T12:11:12.770Z,99143.22
2022-11-27T12:16:52.882Z,99133.28
2022-11-27T12:22:32.834Z,99126.09
2022-11-27T12:28:11.810Z,99127.31
2022-11-27T12:33:48.817Z,99119.88
2022-11-27T12:39:30.834Z,99111.47
2022-11-27T12:45:05.801Z,99098.72
2022-11-27T12:50:36.813Z,99089.78
2022-11-27T12:56:14.821Z,99093.19
2022-11-27T13:01:45.895Z,99087.00
2022-11-27T13:07:16.829Z,99070.19
2022-11-27T13:12:49.824Z,99053.16
2022-11-27T13:18:31.868Z,99046.19
2022-11-27T13:23:56.921Z,99057.91
2022-11-27T13:29:32.804Z,99067.28
2022-11-27T13:34:59.841Z,99060.34
2022-11-27T13:40:36.841Z,99052.53
2022-11-27T13:46:12.089Z,99053.13
2022-11-27T13:51:42.840Z,99050.66
2022-11-27T13:57:18.834Z,99038.66
2022-11-27T14:02:58.820Z,99032.69
2022-11-27T14:08:30.844Z,99037.69
2022-11-27T14:13:57.824Z,99031.72
2022-11-27T14:19:44.936Z,99029.91
2022-11-27T14:25:09.856Z,99027.22
2022-11-27T14:30:41.907Z,99030.53
2022-11-27T14:36:12.009Z,99021.75
2022-11-27T14:41:37.836Z,99020.63
2022-11-27T14:47:04.893Z,99009.22
2022-11-27T14:52:33.844Z,99009.91
2022-11-27T14:57:59.885Z,99002.97
2022-11-27T15:03:26.087Z,98991.28
2022-11-27T15:09:23.799Z,98984.03
2022-11-27T15:14:42.887Z,98969.56
2022-11-27T15:20:10.848Z,98958.84
2022-11-27T15:25:51.890Z,98958.81
2022-11-27T15:31:33.952Z,98947.84
2022-11-27T15:37:00.880Z,98939.31
2022-11-27T15:42:29.908Z,98935.41
2022-11-27T15:48:00.865Z,98935.88
2022-11-27T15:53:26.911Z,98928.31
2022-11-27T15:58:53.911Z,98912.88
2022-11-27T16:04:18.893Z,98928.59
2022-11-27T16:09:42.900Z,98919.34
2022-11-27T16:15:17.035Z,98910.09
2022-11-27T16:20:42.878Z,98909.78
2022-11-27T16:26:06.883Z,98903.31
2022-11-27T16:31:36.011Z,98888.09
2022-11-27T16:36:59.917Z,98878.81
2022-11-27T16:42:26.335Z,98867.25
2022-11-27T16:47:52.971Z,98856.91
2022-11-27T16:53:18.888Z,98855.66
2022-11-27T16:58:47.924Z,98841.03
2022-11-27T17:04:17.892Z,98833.38
2022-11-27T17:09:44.930Z,98824.75
2022-11-27T17:15:10.150Z,98828.09
2022-11-27T17:20:37.037Z,98832.75
2022-11-27T17:26:01.913Z,98850.28
2022-11-27T17:31:28.025Z,98854.25
2022-11-27T17:36:59.925Z,98859.91
2022-11-27T17:42:24.926Z,98868.19
2022-11-27T17:47:50.027Z,98872.16
2022-11-27T17:53:16.968Z,98849.44
2022-11-27T17:58:42.929Z,98842.44
2022-11-27T18:04:11.952Z,98848.81
2022-11-27T18:09:40.213Z,98831.34
2022-11-27T18:15:06.942Z,98808.53
2022-11-27T18:20:32.204Z,98808.75
2022-11-27T18:25:59.193Z,98809.69
2022-11-27T18:31:27.047Z,98799.16
2022-11-27T18:36:53.927Z,98799.28
2022-11-27T18:42:22.011Z,98794.91
2022-11-27T18:47:46.957Z,98795.13
2022-11-27T18:53:13.156Z,98796.28
2022-11-27T18:58:42.320Z,98790.00
2022-11-27T19:04:09.175Z,98780.41
2022-11-27T19:09:34.977Z,98769.75
2022-11-27T19:15:02.978Z,98775.09
2022-11-27T19:20:27.985Z,98767.22
2022-11-27T19:25:55.972Z,98751.00
2022-11-27T19:31:28.089Z,98759.94
2022-11-27T19:36:53.070Z,98756.31
2022-11-27T19:42:23.941Z,98750.16
2022-11-27T19:47:52.025Z,98740.47
2022-11-27T19:53:15.999Z,98722.44
2022-11-27T19:58:42.028Z,98714.34
2022-11-27T20:04:10.018Z,98701.88
2022-11-27T20:09:36.023Z,98699.22
2022-11-27T20:14:59.989Z,98691.00
2022-11-27T20:20:31.416Z,98686.03
2022-11-27T20:25:58.980Z,98680.44
2022-11-27T20:31:30.109Z,98677.91
2022-11-27T20:36:58.042Z,98672.03
2022-11-27T20:42:23.271Z,98669.16
2022-11-27T20:47:47.992Z,98655.84
2022-11-27T20:53:15.993Z,98651.69
2022-11-27T20:58:41.020Z,98641.03
2022-11-27T21:04:08.034Z,98635.09
2022-11-27T21:09:37.271Z,98627.44
2022-11-27T21:15:02.063Z,98632.00
2022-11-27T21:20:28.030Z,98627.63
2022-11-27T21:25:56.048Z,98620.84
2022-11-27T21:31:25.146Z,98612.13
2022-11-27T21:36:50.031Z,98601.06
2022-11-27T21:42:18.415Z,98598.53
2022-11-27T21:47:45.409Z,98589.78
2022-11-27T21:53:09.049Z,98598.72
2022-11-27T21:58:41.186Z,98600.66
2022-11-27T22:04:06.119Z,98590.63
2022-11-27T22:09:31.066Z,98588.81
2022-11-27T22:14:59.414Z,98584.34
2022-11-27T22:20:32.130Z,98573.59
2022-11-27T22:25:57.094Z,98571.91
2022-11-27T22:31:29.092Z,98573.81
2022-11-27T22:36:56.046Z,98568.28
2022-11-27T22:42:27.078Z,98559.75
2022-11-27T22:47:55.084Z,98553.47
2022-11-27T22:53:20.090Z,98543.56
2022-11-27T22:58:45.113Z,98546.22
2022-11-27T23:04:15.080Z,98546.22
2022-11-27T23:09:41.150Z,98538.25
2022-11-27T23:15:06.120Z,98517.91
2022-11-27T23:20:34.107Z,98515.22
2022-11-27T23:25:58.266Z,98510.88
2022-11-27T23:31:32.360Z,98502.66
2022-11-27T23:36:59.099Z,98502.41
2022-11-27T23:42:30.115Z,98496.25
2022-11-27T23:47:57.106Z,98480.91
2022-11-27T23:53:24.101Z,98474.63
2022-11-27T23:58:49.276Z,98479.72
